Time;durP1;ratioP1;P1;durP2;ratioP2;P2;SDS_P1;SDS_P2;PMS_P1;PMS_P2;Temp;Humidity;BMP_temperature;BMP_pressure;BME280_temperature;BME280_humidity;BME280_pressure;Samples;Min_cycle;Max_cycle;Signal;HPM_P1;HPM_P2
2024/02/11 00:01:18;;;;;;;11.98;6.65;;;12.30;99.90;;;;;;10087699;28;20037;-66
2024/02/11 00:06:10;;;;;;;12.15;7.93;;;12.30;99.90;;;;;;10095907;28;20060;-66
2024/02/11 00:11:01;;;;;;;13.15;7.43;;;12.20;99.90;;;;;;10100973;28;20056;-66
2024/02/11 00:15:52;;;;;;;13.52;7.63;;;12.20;99.90;;;;;;10093348;28;20033;-66
2024/02/11 00:20:42;;;;;;;11.10;5.93;;;12.20;99.90;;;;;;10099563;28;20025;-69
2024/02/11 00:25:33;;;;;;;6.32;4.47;;;12.20;99.90;;;;;;10104859;28;20067;-66
2024/02/11 00:30:25;;;;;;;4.35;3.10;;;12.10;99.90;;;;;;10100891;28;20402;-66
2024/02/11 00:35:18;;;;;;;3.75;1.90;;;12.10;99.90;;;;;;10107932;28;20248;-67
2024/02/11 00:40:10;;;;;;;1.73;0.98;;;12.00;99.90;;;;;;10103111;28;20025;-67
2024/02/11 00:45:01;;;;;;;2.25;1.10;;;11.80;99.90;;;;;;10103769;28;20116;-67
2024/02/11 00:49:52;;;;;;;1.90;1.30;;;11.70;99.90;;;;;;10099533;28;20117;-67
2024/02/11 00:54:43;;;;;;;1.88;0.98;;;11.70;99.90;;;;;;10114484;28;20028;-67
2024/02/11 00:59:34;;;;;;;1.40;0.70;;;11.70;99.90;;;;;;10112815;28;20254;-67
2024/02/11 01:04:25;;;;;;;1.10;0.60;;;11.60;99.90;;;;;;10110380;28;20025;-68
2024/02/11 01:09:16;;;;;;;1.02;0.57;;;11.60;99.90;;;;;;10109765;28;20168;-67
2024/02/11 01:14:08;;;;;;;1.05;0.40;;;11.60;99.90;;;;;;10107593;28;20047;-68
2024/02/11 01:19:00;;;;;;;0.40;0.40;;;11.60;99.90;;;;;;10114834;28;20364;-66
2024/02/11 01:23:50;;;;;;;0.40;0.30;;;11.50;99.90;;;;;;10117191;28;20033;-68
2024/02/11 01:28:41;;;;;;;0.40;0.25;;;11.30;99.90;;;;;;10112642;28;20081;-67
2024/02/11 01:33:32;;;;;;;0.63;0.30;;;11.20;99.90;;;;;;10113932;28;20346;-68
2024/02/11 01:38:23;;;;;;;0.22;0.22;;;11.20;99.90;;;;;;10108234;28;20090;-68
2024/02/11 01:43:13;;;;;;;1.65;0.30;;;11.10;99.90;;;;;;10093289;28;20102;-67
2024/02/11 01:48:05;;;;;;;0.50;0.32;;;11.20;99.90;;;;;;10116696;28;20036;-67
2024/02/11 01:52:56;;;;;;;0.32;0.20;;;11.30;99.90;;;;;;10114519;28;20040;-68
2024/02/11 01:57:47;;;;;;;0.32;0.20;;;11.30;99.90;;;;;;10115787;28;20103;-68
2024/02/11 02:02:38;;;;;;;0.50;0.35;;;11.30;99.90;;;;;;10111124;28;20033;-68
2024/02/11 02:07:30;;;;;;;0.30;0.30;;;11.20;99.90;;;;;;10100573;28;20051;-67
2024/02/11 02:12:21;;;;;;;0.10;0.10;;;11.10;99.90;;;;;;10117651;28;20029;-66
2024/02/11 02:17:12;;;;;;;1.02;0.95;;;11.10;99.90;;;;;;10113095;28;20566;-68
2024/02/11 02:22:02;;;;;;;1.08;0.45;;;11.10;99.90;;;;;;10119099;28;20060;-67
2024/02/11 02:26:53;;;;;;;3.13;0.50;;;11.00;99.90;;;;;;10106095;28;20099;-67
2024/02/11 02:31:44;;;;;;;1.23;0.52;;;11.00;99.90;;;;;;10119796;28;20151;-66
2024/02/11 02:36:36;;;;;;;0.70;0.52;;;11.00;99.90;;;;;;10091627;28;20033;-66
2024/02/11 02:41:27;;;;;;;1.88;0.75;;;11.00;99.90;;;;;;10107721;28;20025;-67
2024/02/11 02:46:17;;;;;;;0.82;0.50;;;10.90;99.90;;;;;;10112380;28;20033;-66
2024/02/11 02:51:08;;;;;;;0.68;0.43;;;10.90;99.90;;;;;;10111728;28;20228;-67
2024/02/11 02:55:59;;;;;;;0.60;0.38;;;10.90;99.90;;;;;;10105139;28;20027;-66
2024/02/11 03:00:50;;;;;;;0.90;0.55;;;10.80;99.90;;;;;;10103866;28;20021;-67
2024/02/11 03:05:41;;;;;;;0.70;0.40;;;10.70;99.90;;;;;;10110164;28;20029;-67
2024/02/11 03:10:33;;;;;;;1.27;0.75;;;10.70;99.90;;;;;;10102852;28;20706;-66
2024/02/11 03:15:23;;;;;;;0.90;0.52;;;10.60;99.90;;;;;;10108583;28;20040;-67
2024/02/11 03:20:15;;;;;;;0.85;0.57;;;10.50;99.90;;;;;;10105920;28;20035;-66
2024/02/11 03:25:06;;;;;;;2.70;0.60;;;10.50;99.90;;;;;;10060200;28;1424707;-66
2024/02/11 03:29:57;;;;;;;0.50;0.50;;;10.50;99.90;;;;;;10115099;28;20045;-67
2024/02/11 03:34:48;;;;;;;0.68;0.55;;;10.40;99.90;;;;;;10113439;28;20052;-68
2024/02/11 03:39:38;;;;;;;0.68;0.50;;;10.40;99.90;;;;;;10114212;28;20047;-67
2024/02/11 03:44:29;;;;;;;0.52;0.52;;;10.40;99.90;;;;;;10111731;28;20056;-67
2024/02/11 03:49:20;;;;;;;0.60;0.52;;;10.30;99.90;;;;;;10106444;28;20049;-66
2024/02/11 03:54:12;;;;;;;0.47;0.40;;;10.30;99.90;;;;;;10107550;28;20071;-67
2024/02/11 03:59:03;;;;;;;0.95;0.45;;;10.30;99.90;;;;;;10106112;28;20111;-66
2024/02/11 04:03:53;;;;;;;0.95;0.80;;;10.20;99.90;;;;;;10110693;28;20052;-67
2024/02/11 04:08:44;;;;;;;0.85;0.52;;;10.20;99.90;;;;;;10090229;28;20104;-67
2024/02/11 04:13:36;;;;;;;0.55;0.40;;;10.20;99.90;;;;;;10108557;28;20056;-66
2024/02/11 04:18:29;;;;;;;2.67;0.50;;;10.20;99.90;;;;;;10099696;28;20323;-66
2024/02/11 04:23:19;;;;;;;1.05;0.65;;;10.20;99.90;;;;;;10106535;28;20087;-65
2024/02/11 04:28:10;;;;;;;0.85;0.55;;;10.20;99.90;;;;;;10082653;28;20142;-67
2024/02/11 04:33:02;;;;;;;0.85;0.70;;;10.10;99.90;;;;;;10114843;28;20529;-66
2024/02/11 04:37:53;;;;;;;3.63;0.98;;;10.00;99.90;;;;;;10116898;28;20417;-65
2024/02/11 04:42:45;;;;;;;1.92;0.75;;;10.10;99.90;;;;;;10115488;28;20101;-66
2024/02/11 04:47:36;;;;;;;1.70;1.20;;;10.10;99.90;;;;;;10116560;28;20051;-68
2024/02/11 04:52:29;;;;;;;0.85;0.60;;;10.10;99.90;;;;;;10106020;28;20043;-67
2024/02/11 04:57:21;;;;;;;1.30;1.05;;;10.10;99.90;;;;;;10099774;28;20036;-67
2024/02/11 05:02:12;;;;;;;1.02;0.70;;;10.10;99.90;;;;;;10088354;28;20028;-67
2024/02/11 05:07:03;;;;;;;5.38;1.20;;;10.00;99.90;;;;;;10103372;28;20028;-66
2024/02/11 05:11:54;;;;;;;2.60;1.15;;;10.00;99.90;;;;;;10115561;28;20284;-66
2024/02/11 05:16:45;;;;;;;2.20;0.95;;;10.00;99.90;;;;;;10106878;28;20017;-65
2024/02/11 05:21:35;;;;;;;1.58;1.02;;;10.00;99.90;;;;;;10076957;28;20049;-66
2024/02/11 05:26:27;;;;;;;1.73;0.90;;;10.00;99.90;;;;;;10093861;28;20094;-66
2024/02/11 05:31:20;;;;;;;1.88;1.10;;;10.00;99.90;;;;;;10099927;28;20049;-66
2024/02/11 05:36:13;;;;;;;1.65;1.25;;;10.00;99.90;;;;;;10107233;28;20085;-66
2024/02/11 05:41:04;;;;;;;2.38;1.70;;;10.00;99.90;;;;;;10096560;28;20108;-67
2024/02/11 05:45:54;;;;;;;3.15;1.65;;;10.10;99.90;;;;;;10107673;28;20021;-67
2024/02/11 05:50:48;;;;;;;4.05;1.38;;;10.00;99.90;;;;;;10100503;28;20192;-65
2024/02/11 05:55:38;;;;;;;2.42;1.48;;;10.00;99.90;;;;;;10104179;28;20029;-65
2024/02/11 06:00:31;;;;;;;4.25;1.52;;;10.00;99.90;;;;;;10105987;28;20107;-68
2024/02/11 06:05:23;;;;;;;5.25;1.70;;;9.90;99.90;;;;;;10099707;28;20124;-66
2024/02/11 06:10:13;;;;;;;3.30;1.52;;;10.00;99.90;;;;;;10085095;28;20040;-67
2024/02/11 06:15:07;;;;;;;2.63;1.33;;;10.00;99.90;;;;;;10078886;28;20035;-66
2024/02/11 06:19:58;;;;;;;1.60;1.20;;;9.90;99.90;;;;;;10098308;28;20082;-66
2024/02/11 06:24:51;;;;;;;1.83;1.40;;;9.80;99.90;;;;;;10093557;28;20079;-66
2024/02/11 06:29:42;;;;;;;4.07;2.03;;;9.90;99.90;;;;;;10090138;28;20060;-66
2024/02/11 06:34:35;;;;;;;3.40;1.73;;;9.90;99.90;;;;;;10112024;28;20035;-66
2024/02/11 06:39:26;;;;;;;3.65;2.17;;;9.80;99.90;;;;;;10110409;28;20115;-67
2024/02/11 06:44:18;;;;;;;6.07;2.08;;;9.90;99.90;;;;;;10110657;28;20307;-65
2024/02/11 06:49:09;;;;;;;3.95;1.98;;;9.90;99.90;;;;;;10106375;28;20043;-66
2024/02/11 06:54:00;;;;;;;3.95;2.15;;;9.90;99.90;;;;;;10109515;28;20029;-66
2024/02/11 06:58:51;;;;;;;5.55;2.08;;;9.90;99.90;;;;;;10119513;28;20025;-67
2024/02/11 07:03:41;;;;;;;3.67;2.05;;;9.90;99.90;;;;;;10103233;28;20029;-66
2024/02/11 07:08:36;;;;;;;4.85;2.08;;;9.80;99.90;;;;;;10091598;28;20036;-66
2024/02/11 07:13:27;;;;;;;1.63;1.10;;;9.90;99.90;;;;;;10108234;28;20028;-65
2024/02/11 07:18:18;;;;;;;3.55;1.38;;;9.90;99.90;;;;;;10112396;28;20022;-66
2024/02/11 07:23:09;;;;;;;5.15;2.50;;;9.80;99.90;;;;;;10092938;28;20047;-65
2024/02/11 07:27:59;;;;;;;3.72;1.77;;;9.90;99.90;;;;;;10095149;28;20068;-67
2024/02/11 07:32:50;;;;;;;9.55;3.35;;;9.90;99.90;;;;;;10107919;28;20569;-65
2024/02/11 07:37:41;;;;;;;3.78;2.17;;;9.90;99.90;;;;;;10109820;28;20025;-65
2024/02/11 07:42:32;;;;;;;3.25;1.95;;;9.80;99.90;;;;;;10112918;28;20033;-66
2024/02/11 07:47:23;;;;;;;1.70;1.17;;;9.80;99.90;;;;;;10110936;28;20033;-66
2024/02/11 07:52:16;;;;;;;5.00;1.80;;;9.80;99.90;;;;;;10097640;28;20029;-66
2024/02/11 07:57:07;;;;;;;2.33;1.60;;;9.80;99.90;;;;;;10106580;28;20036;-66
2024/02/11 08:01:58;;;;;;;3.78;1.65;;;9.80;99.90;;;;;;10108745;28;20055;-67
2024/02/11 08:06:48;;;;;;;3.42;1.65;;;9.80;99.90;;;;;;10095275;28;20040;-66
2024/02/11 08:11:42;;;;;;;4.60;1.90;;;9.90;99.90;;;;;;10107301;28;20127;-65
2024/02/11 08:16:33;;;;;;;3.00;1.98;;;9.90;99.90;;;;;;10115125;28;20345;-66
2024/02/11 08:21:26;;;;;;;3.22;1.70;;;9.90;99.90;;;;;;10107514;28;20969;-67
2024/02/11 08:26:17;;;;;;;5.88;2.38;;;10.00;99.90;;;;;;10098924;28;20053;-65
2024/02/11 08:31:07;;;;;;;2.67;1.60;;;10.00;99.90;;;;;;10112261;28;20032;-66
2024/02/11 08:35:58;;;;;;;4.82;2.78;;;10.10;99.90;;;;;;10110194;28;20335;-67
2024/02/11 08:40:50;;;;;;;6.00;2.17;;;10.10;99.90;;;;;;10109203;28;20111;-66
2024/02/11 08:45:40;;;;;;;4.15;2.08;;;10.10;99.90;;;;;;10110427;28;20088;-66
2024/02/11 08:50:31;;;;;;;2.67;1.77;;;10.10;99.90;;;;;;10108120;28;20037;-65
2024/02/11 08:55:22;;;;;;;4.40;1.75;;;10.10;99.90;;;;;;10107718;28;20434;-65
2024/02/11 09:00:18;;;;;;;5.90;2.50;;;10.10;99.90;;;;;;10110722;28;20025;-67
2024/02/11 09:05:08;;;;;;;;;;;10.30;99.90;;;;;;10115297;28;20029;-66
2024/02/11 09:09:59;;;;;;;4.10;2.15;;;10.30;99.90;;;;;;10108659;28;20007;-65
2024/02/11 09:14:50;;;;;;;3.45;1.88;;;10.40;99.90;;;;;;10095969;28;20029;-66
2024/02/11 09:19:41;;;;;;;5.22;2.53;;;10.40;99.90;;;;;;10100348;28;20032;-66
2024/02/11 09:24:33;;;;;;;4.93;2.13;;;10.50;99.90;;;;;;10091740;28;20331;-66
2024/02/11 09:29:26;;;;;;;3.72;1.75;;;10.50;99.90;;;;;;10110383;28;20514;-65
2024/02/11 09:34:16;;;;;;;4.55;1.98;;;10.50;99.90;;;;;;10115445;28;20065;-66
2024/02/11 09:39:10;;;;;;;4.25;1.80;;;10.50;99.90;;;;;;10095282;28;20095;-65
2024/02/11 09:44:03;;;;;;;3.65;2.22;;;10.50;99.90;;;;;;10102935;28;20084;-67
2024/02/11 09:48:58;;;;;;;3.47;1.80;;;10.60;99.90;;;;;;10113522;28;20099;-66
2024/02/11 09:53:52;;;;;;;5.50;1.88;;;10.60;99.90;;;;;;10117080;28;20278;-65
2024/02/11 09:58:43;;;;;;;5.15;2.05;;;10.50;99.90;;;;;;10109174;28;20025;-66
2024/02/11 10:03:35;;;;;;;3.22;1.67;;;10.60;99.90;;;;;;10119704;28;20025;-66
2024/02/11 10:08:26;;;;;;;3.25;1.85;;;10.70;99.90;;;;;;10093984;28;20040;-65
2024/02/11 10:13:19;;;;;;;3.97;2.15;;;10.80;99.90;;;;;;10098617;28;20111;-66
2024/02/11 10:18:10;;;;;;;3.70;1.77;;;10.80;99.90;;;;;;10116274;28;20222;-66
2024/02/11 10:23:03;;;;;;;3.38;1.45;;;10.80;99.90;;;;;;10113542;28;20035;-67
2024/02/11 10:27:55;;;;;;;5.32;1.75;;;10.80;99.90;;;;;;10114594;28;20059;-66
2024/02/11 10:32:46;;;;;;;2.42;1.40;;;10.80;99.90;;;;;;10089964;28;20029;-67
2024/02/11 10:37:38;;;;;;;3.47;1.50;;;10.80;99.90;;;;;;10120711;28;20029;-66
2024/02/11 10:42:28;;;;;;;3.60;2.30;;;10.90;99.90;;;;;;10118991;28;20023;-65
2024/02/11 10:47:19;;;;;;;1.80;1.02;;;10.90;99.90;;;;;;10113226;28;20033;-67
2024/02/11 10:52:12;;;;;;;2.63;1.40;;;10.90;99.90;;;;;;10114868;28;20323;-67
2024/02/11 10:57:12;;;;;;;2.30;1.35;;;10.90;99.90;;;;;;10113400;28;20021;-66
2024/02/11 11:02:03;;;;;;;1.42;1.02;;;10.90;99.90;;;;;;10120589;28;21234;-67
2024/02/11 11:06:54;;;;;;;2.28;1.15;;;11.00;99.90;;;;;;10114749;28;20100;-67
2024/02/11 11:11:45;;;;;;;3.60;1.45;;;11.10;99.90;;;;;;10113111;28;20048;-66
2024/02/11 11:16:42;;;;;;;5.22;1.63;;;11.20;99.90;;;;;;10113323;28;20036;-66
2024/02/11 11:21:34;;;;;;;1.80;1.10;;;11.30;99.90;;;;;;10110577;28;20552;-66
2024/02/11 11:26:24;;;;;;;2.58;1.45;;;11.30;99.90;;;;;;10115486;28;20099;-66
2024/02/11 11:31:17;;;;;;;2.00;1.35;;;11.30;99.90;;;;;;10108561;28;20044;-67
2024/02/11 11:36:07;;;;;;;1.52;1.00;;;11.30;99.90;;;;;;10086366;28;20490;-66
2024/02/11 11:40:59;;;;;;;4.75;1.90;;;11.40;99.90;;;;;;10107493;28;20048;-68
2024/02/11 11:45:56;;;;;;;2.67;1.25;;;11.40;99.90;;;;;;10108485;28;20040;-66
2024/02/11 11:50:58;;;;;;;2.10;1.23;;;11.50;99.90;;;;;;10105874;28;20067;-67
2024/02/11 11:55:53;;;;;;;2.70;1.05;;;11.50;99.90;;;;;;10118047;28;20032;-66
2024/02/11 12:00:55;;;;;;;2.58;1.60;;;11.50;99.90;;;;;;10092565;28;20063;-65
2024/02/11 12:05:46;;;;;;;1.42;1.08;;;11.50;99.90;;;;;;10108726;28;20574;-66
2024/02/11 12:10:37;;;;;;;1.60;1.00;;;11.50;99.90;;;;;;10114620;28;20033;-66
2024/02/11 12:15:29;;;;;;;4.38;1.45;;;11.60;99.90;;;;;;10101649;28;20032;-66
2024/02/11 12:20:21;;;;;;;2.25;1.30;;;11.60;99.90;;;;;;10109565;28;20135;-67
2024/02/11 12:25:20;;;;;;;1.65;1.13;;;11.70;99.90;;;;;;10095166;28;20083;-67
2024/02/11 12:30:11;;;;;;;2.88;1.40;;;11.70;99.90;;;;;;10104800;28;20028;-66
2024/02/11 12:35:02;;;;;;;2.20;1.13;;;11.70;99.90;;;;;;10105344;28;20021;-67
2024/02/11 12:39:54;;;;;;;3.05;1.48;;;11.80;99.90;;;;;;10104034;28;20052;-67
2024/02/11 12:44:46;;;;;;;5.93;2.20;;;11.90;99.90;;;;;;10105062;28;20037;-66
2024/02/11 12:49:38;;;;;;;2.13;1.33;;;12.00;99.90;;;;;;10119834;28;20048;-67
2024/02/11 12:54:29;;;;;;;4.22;1.20;;;11.90;99.90;;;;;;10110379;28;20032;-67
2024/02/11 12:59:19;;;;;;;2.25;0.80;;;11.90;99.90;;;;;;10091067;28;20108;-67
2024/02/11 13:04:11;;;;;;;2.03;1.00;;;11.90;99.90;;;;;;10097557;28;20090;-67
2024/02/11 13:09:03;;;;;;;1.50;0.85;;;11.90;99.90;;;;;;10117309;28;20564;-67
2024/02/11 13:13:57;;;;;;;1.98;1.00;;;11.90;99.90;;;;;;10117526;28;20029;-67
2024/02/11 13:18:48;;;;;;;2.80;0.88;;;11.90;99.90;;;;;;10113494;28;20072;-67
2024/02/11 13:23:39;;;;;;;1.65;1.20;;;12.00;99.90;;;;;;10105353;28;20028;-66
2024/02/11 13:28:29;;;;;;;1.02;0.80;;;11.90;99.90;;;;;;10095449;28;20053;-67
2024/02/11 13:33:20;;;;;;;1.25;0.75;;;12.00;99.90;;;;;;10083563;28;20032;-67
2024/02/11 13:38:11;;;;;;;2.42;1.23;;;12.00;99.90;;;;;;10095306;28;20025;-67
2024/02/11 13:43:02;;;;;;;1.13;0.73;;;12.10;99.90;;;;;;10097402;28;20070;-67
2024/02/11 13:47:53;;;;;;;1.50;0.95;;;12.10;99.90;;;;;;10093484;28;20117;-65
2024/02/11 13:52:43;;;;;;;2.38;1.50;;;12.10;99.90;;;;;;10092198;28;20053;-66
2024/02/11 13:57:34;;;;;;;1.58;0.98;;;12.10;99.90;;;;;;10097207;28;20028;-66
2024/02/11 14:02:26;;;;;;;1.08;0.85;;;12.30;99.90;;;;;;10102289;28;20552;-66
2024/02/11 14:07:17;;;;;;;0.57;0.50;;;12.30;99.90;;;;;;10070287;28;20644;-65
2024/02/11 14:12:08;;;;;;;2.05;0.68;;;12.40;99.90;;;;;;10102011;28;20033;-67
2024/02/11 14:17:00;;;;;;;2.88;0.90;;;12.40;99.90;;;;;;10084146;28;20037;-67
2024/02/11 14:21:51;;;;;;;1.45;0.77;;;12.30;99.90;;;;;;10068598;28;20033;-68
2024/02/11 14:26:45;;;;;;;2.08;0.70;;;12.20;99.90;;;;;;10084485;28;20128;-78
2024/02/11 14:31:36;;;;;;;1.65;0.68;;;12.20;99.90;;;;;;10073163;28;20075;-66
2024/02/11 14:36:27;;;;;;;0.40;0.35;;;12.10;99.90;;;;;;10097628;28;20064;-68
2024/02/11 14:41:22;;;;;;;1.08;0.50;;;12.10;99.90;;;;;;10090333;28;20056;-67
2024/02/11 14:46:13;;;;;;;1.50;0.43;;;12.30;99.90;;;;;;10088685;28;20518;-67
2024/02/11 14:51:04;;;;;;;0.95;0.50;;;12.20;99.90;;;;;;10093695;28;20079;-67
2024/02/11 14:55:55;;;;;;;2.17;0.63;;;12.20;99.90;;;;;;10095178;28;20434;-67
2024/02/11 15:00:47;;;;;;;1.27;0.60;;;12.20;99.90;;;;;;10094620;28;20438;-68
2024/02/11 15:05:37;;;;;;;1.38;0.80;;;12.20;99.90;;;;;;10088879;28;20036;-67
2024/02/11 15:10:28;;;;;;;1.75;0.77;;;12.30;99.90;;;;;;10096464;28;20047;-69
2024/02/11 15:15:19;;;;;;;1.48;0.90;;;12.40;99.90;;;;;;10091903;28;20025;-68
2024/02/11 15:20:10;;;;;;;1.13;0.68;;;12.50;99.90;;;;;;10100529;28;20041;-67
2024/02/11 15:25:01;;;;;;;0.70;0.50;;;12.50;99.90;;;;;;10094371;28;20525;-68
2024/02/11 15:29:52;;;;;;;0.60;0.55;;;12.40;99.90;;;;;;10096572;28;20044;-67
2024/02/11 15:34:42;;;;;;;1.48;0.70;;;12.40;99.90;;;;;;10096183;28;20021;-68
2024/02/11 15:39:33;;;;;;;1.38;0.52;;;12.40;99.90;;;;;;10095272;28;20021;-67
2024/02/11 15:44:24;;;;;;;0.85;0.50;;;12.40;99.90;;;;;;10092249;28;20116;-68
2024/02/11 15:49:15;;;;;;;1.70;0.60;;;12.20;99.90;;;;;;10095809;28;20123;-69
2024/02/11 15:54:05;;;;;;;2.72;0.95;;;12.20;99.90;;;;;;10093993;28;20032;-68
2024/02/11 15:58:56;;;;;;;1.30;0.75;;;12.30;99.90;;;;;;10096456;28;20089;-68
2024/02/11 16:03:49;;;;;;;1.33;0.52;;;12.30;99.90;;;;;;10094755;28;20109;-68
2024/02/11 16:08:39;;;;;;;2.05;0.60;;;12.40;99.90;;;;;;10094077;28;20094;-69
2024/02/11 16:13:30;;;;;;;1.10;0.60;;;12.30;99.90;;;;;;10088043;28;20107;-68
2024/02/11 16:18:20;;;;;;;1.13;0.60;;;12.30;99.90;;;;;;10078115;28;20032;-68
2024/02/11 16:23:13;;;;;;;1.27;0.70;;;12.30;99.90;;;;;;10101392;28;20124;-69
2024/02/11 16:28:05;;;;;;;0.70;0.40;;;12.30;99.90;;;;;;10108111;28;20044;-67
2024/02/11 16:32:57;;;;;;;1.63;0.73;;;12.20;99.90;;;;;;10103780;28;20017;-68
2024/02/11 16:37:48;;;;;;;2.42;0.63;;;12.20;99.90;;;;;;10102228;28;20063;-69
2024/02/11 16:42:42;;;;;;;0.35;0.30;;;12.10;99.90;;;;;;10091207;28;20037;-66
2024/02/11 16:47:33;;;;;;;0.82;0.60;;;12.10;99.90;;;;;;10089104;28;20052;-67
2024/02/11 16:52:23;;;;;;;0.90;0.50;;;12.10;99.90;;;;;;10092383;28;20041;-66
2024/02/11 16:57:14;;;;;;;1.27;0.85;;;12.10;99.90;;;;;;10088317;28;20614;-67
2024/02/11 17:02:05;;;;;;;1.50;0.70;;;12.10;99.90;;;;;;10094366;28;20033;-66
2024/02/11 17:06:56;;;;;;;1.25;1.08;;;12.10;99.90;;;;;;10071844;28;20434;-65
2024/02/11 17:11:47;;;;;;;2.53;1.10;;;12.10;99.90;;;;;;10094760;28;20094;-66
2024/02/11 17:16:37;;;;;;;0.95;0.80;;;12.10;99.90;;;;;;10102331;28;20025;-67
2024/02/11 17:21:28;;;;;;;1.52;0.75;;;12.00;99.90;;;;;;10090309;28;20032;-67
2024/02/11 17:26:18;;;;;;;1.38;0.80;;;11.90;99.90;;;;;;10110789;28;20124;-67
2024/02/11 17:31:11;;;;;;;1.63;0.93;;;11.90;99.90;;;;;;10101440;28;20085;-67
2024/02/11 17:36:03;;;;;;;2.00;0.88;;;11.80;99.90;;;;;;10100059;28;20063;-66
2024/02/11 17:40:54;;;;;;;0.93;0.82;;;11.70;99.90;;;;;;10100054;28;20060;-67
2024/02/11 17:45:45;;;;;;;1.52;1.00;;;11.70;99.90;;;;;;10100886;28;20509;-67
2024/02/11 17:50:41;;;;;;;1.50;0.73;;;11.70;99.90;;;;;;10094688;28;20122;-67
2024/02/11 17:55:33;;;;;;;0.95;0.70;;;11.60;99.90;;;;;;10101846;28;20522;-66
2024/02/11 18:00:24;;;;;;;1.20;0.85;;;11.50;99.90;;;;;;10099189;28;20037;-67
2024/02/11 18:05:14;;;;;;;1.40;0.70;;;11.50;99.90;;;;;;10098666;28;20025;-67
2024/02/11 18:10:08;;;;;;;2.47;0.55;;;11.60;99.90;;;;;;10092947;28;20049;-67
2024/02/11 18:15:00;;;;;;;0.52;0.52;;;11.50;99.90;;;;;;10075703;28;20539;-67
2024/02/11 18:19:50;;;;;;;1.40;0.60;;;11.40;99.90;;;;;;10086083;28;20033;-67
2024/02/11 18:24:41;;;;;;;1.10;0.77;;;11.50;99.90;;;;;;10091572;28;20049;-67
2024/02/11 18:29:34;;;;;;;1.15;1.00;;;11.50;99.90;;;;;;10095829;28;20091;-65
2024/02/11 18:34:25;;;;;;;1.88;1.20;;;11.50;99.90;;;;;;10097147;28;20442;-67
2024/02/11 18:39:16;;;;;;;2.20;1.13;;;11.50;99.90;;;;;;10098791;28;20032;-66
2024/02/11 18:44:09;;;;;;;1.05;0.70;;;11.50;99.90;;;;;;10093002;28;20033;-66
2024/02/11 18:49:00;;;;;;;1.92;0.63;;;11.40;99.90;;;;;;10085590;28;20044;-66
2024/02/11 18:53:50;;;;;;;0.93;0.55;;;11.40;99.90;;;;;;10098190;28;20040;-66
2024/02/11 18:58:42;;;;;;;1.08;0.45;;;11.50;99.90;;;;;;10080008;28;20028;-67
2024/02/11 19:03:33;;;;;;;1.25;0.50;;;11.50;99.90;;;;;;10097461;28;20028;-67
2024/02/11 19:08:23;;;;;;;2.03;0.90;;;11.50;99.90;;;;;;10093048;28;20045;-67
2024/02/11 19:13:14;;;;;;;2.88;1.02;;;11.40;99.90;;;;;;10094841;28;20029;-67
2024/02/11 19:18:05;;;;;;;2.65;0.80;;;11.40;99.90;;;;;;10095887;28;20104;-67
2024/02/11 19:22:55;;;;;;;1.20;0.93;;;11.40;99.90;;;;;;10087742;28;20032;-67
2024/02/11 19:27:46;;;;;;;2.97;0.98;;;11.20;99.90;;;;;;10096632;28;20049;-67
2024/02/11 19:32:39;;;;;;;2.55;0.88;;;11.30;99.90;;;;;;10097490;28;20044;-68
2024/02/11 19:37:30;;;;;;;3.78;1.70;;;11.30;99.90;;;;;;10086351;28;20039;-67
2024/02/11 19:42:23;;;;;;;2.53;0.88;;;11.30;99.90;;;;;;10094795;28;20522;-66
2024/02/11 19:47:13;;;;;;;1.23;0.75;;;11.30;99.90;;;;;;10100844;28;20620;-66
2024/02/11 19:52:06;;;;;;;3.13;1.33;;;11.30;99.90;;;;;;10090537;28;20094;-67
2024/02/11 19:56:57;;;;;;;2.40;0.90;;;11.30;99.90;;;;;;10095095;28;20123;-66
2024/02/11 20:01:47;;;;;;;1.73;0.90;;;11.20;99.90;;;;;;10092521;28;20124;-67
2024/02/11 20:06:39;;;;;;;0.55;0.52;;;11.10;99.90;;;;;;10096061;28;20044;-66
2024/02/11 20:11:30;;;;;;;1.90;0.95;;;11.10;99.90;;;;;;10095535;28;20048;-67
2024/02/11 20:16:21;;;;;;;1.58;0.65;;;11.10;99.90;;;;;;10095921;28;20025;-65
2024/02/11 20:21:11;;;;;;;2.50;1.20;;;11.10;99.90;;;;;;10095779;28;20029;-66
2024/02/11 20:26:04;;;;;;;1.75;1.00;;;11.10;99.90;;;;;;10089847;28;20037;-66
2024/02/11 20:30:54;;;;;;;3.03;1.10;;;11.10;99.90;;;;;;10090061;28;20493;-65
2024/02/11 20:35:45;;;;;;;0.95;0.75;;;11.00;99.90;;;;;;10092430;28;20033;-66
2024/02/11 20:40:36;;;;;;;4.15;1.40;;;11.00;99.90;;;;;;10093419;28;20047;-67
2024/02/11 20:45:27;;;;;;;2.33;0.98;;;11.00;99.90;;;;;;10075221;28;20032;-66
2024/02/11 20:50:17;;;;;;;2.63;1.52;;;11.00;99.90;;;;;;10075566;28;20045;-66
2024/02/11 20:55:08;;;;;;;2.63;0.82;;;11.00;99.90;;;;;;10093256;28;20029;-66
2024/02/11 21:00:01;;;;;;;1.65;1.30;;;11.00;99.90;;;;;;10093633;28;20763;-67
2024/02/11 21:04:52;;;;;;;2.25;1.20;;;11.00;99.90;;;;;;10091122;28;20025;-66
2024/02/11 21:09:42;;;;;;;2.40;1.30;;;11.00;99.90;;;;;;10102425;28;20035;-66
2024/02/11 21:14:37;;;;;;;1.70;0.77;;;11.00;99.90;;;;;;10099066;28;20044;-67
2024/02/11 21:19:30;;;;;;;2.10;0.80;;;11.00;99.90;;;;;;10099344;28;20039;-67
2024/02/11 21:24:21;;;;;;;3.33;0.88;;;10.90;99.90;;;;;;10101896;28;20027;-68
2024/02/11 21:29:12;;;;;;;2.00;0.75;;;11.00;99.90;;;;;;10101024;28;20053;-69
2024/02/11 21:34:03;;;;;;;0.68;0.50;;;11.00;99.90;;;;;;10101677;28;20025;-67
2024/02/11 21:38:54;;;;;;;1.83;0.80;;;11.00;99.90;;;;;;10100196;28;20035;-66
2024/02/11 21:43:46;;;;;;;1.60;0.70;;;11.00;99.90;;;;;;10096639;28;20407;-67
2024/02/11 21:48:40;;;;;;;1.58;0.85;;;11.00;99.90;;;;;;10100073;28;20075;-66
2024/02/11 21:53:31;;;;;;;2.00;0.70;;;11.00;99.90;;;;;;10094792;28;20063;-67
2024/02/11 21:58:22;;;;;;;0.77;0.60;;;11.00;99.90;;;;;;10088253;28;20039;-67
2024/02/11 22:03:13;;;;;;;1.00;0.55;;;11.00;99.90;;;;;;10095758;28;20025;-67
2024/02/11 22:08:06;;;;;;;1.70;0.80;;;11.00;99.90;;;;;;10099681;28;20072;-67
2024/02/11 22:12:57;;;;;;;1.63;0.73;;;10.90;99.90;;;;;;10099827;28;20036;-68
2024/02/11 22:17:52;;;;;;;2.58;0.70;;;11.00;99.90;;;;;;10100020;28;20033;-67
2024/02/11 22:22:42;;;;;;;1.58;0.65;;;11.00;99.90;;;;;;10100460;28;20013;-67
2024/02/11 22:27:33;;;;;;;0.60;0.60;;;11.00;99.90;;;;;;10100430;28;20049;-66
2024/02/11 22:32:26;;;;;;;1.40;1.30;;;10.90;99.90;;;;;;10108147;28;20069;-67
2024/02/11 22:37:17;;;;;;;1.88;0.70;;;11.00;99.90;;;;;;10105914;28;20433;-67
2024/02/11 22:42:08;;;;;;;1.02;0.60;;;10.90;99.90;;;;;;10106341;28;20039;-67
2024/02/11 22:46:59;;;;;;;1.77;0.70;;;11.00;99.90;;;;;;10086192;28;20035;-67
2024/02/11 22:51:49;;;;;;;0.70;0.50;;;11.00;99.90;;;;;;10086814;28;20029;-67
2024/02/11 22:56:40;;;;;;;1.23;0.63;;;11.00;99.90;;;;;;10081917;28;20315;-66
2024/02/11 23:01:31;;;;;;;0.40;0.40;;;11.00;99.90;;;;;;10094246;28;20032;-67
2024/02/11 23:06:21;;;;;;;1.45;0.60;;;11.00;99.90;;;;;;10094445;28;20029;-67
2024/02/11 23:11:21;;;;;;;0.60;0.43;;;11.00;99.90;;;;;;10099417;28;20375;-67
2024/02/11 23:16:12;;;;;;;0.50;0.30;;;11.00;99.90;;;;;;10098861;28;20061;-67
2024/02/11 23:21:05;;;;;;;0.98;0.45;;;11.00;99.90;;;;;;10110654;28;20045;-67
2024/02/11 23:25:58;;;;;;;1.60;0.50;;;11.00;99.90;;;;;;10096903;28;20049;-66
2024/02/11 23:30:49;;;;;;;1.67;0.77;;;11.00;99.90;;;;;;10087803;28;20145;-66
2024/02/11 23:35:40;;;;;;;2.38;0.60;;;11.00;99.90;;;;;;10095181;28;20087;-66
2024/02/11 23:40:31;;;;;;;1.58;1.17;;;11.00;99.90;;;;;;10095462;28;20524;-68
2024/02/11 23:45:22;;;;;;;1.70;0.90;;;10.90;99.90;;;;;;10095108;28;20032;-66
2024/02/11 23:50:15;;;;;;;1.02;0.47;;;11.00;99.90;;;;;;10102095;28;20033;-66
2024/02/11 23:55:07;;;;;;;2.08;0.50;;;11.00;99.90;;;;;;10096904;28;20037;-67
2024/02/11 23:59:58;;;;;;;0.80;0.40;;;10.90;99.90;;;;;;10095960;28;20540;-66
